Flugplatz Marl-Loemühle

Für EDLM sind keine METAR/TAF Berichte vorhanden.
Es werden die Flugwettermeldungen vom Flugplatz Dortmund in 34 km Entfernung angezeigt.

Bericht für EDLW

vom 23.08. um 12:50 UTC

variable Windrichtung mit 5 kt

Sichtweite 10 km oder mehr

gute Sicht, keine Wolken < 5000 ft, keine CB, keine Wettererscheinungen (CAVOK)

Temperatur 26.0°C

Taupunkt 9.0°C

Luftfeuchtigkeit 34%

Luftdruck 1025 hPa

EDLW 231250Z VRB05KT CAVOK 26/09 Q1025

Prognose für EDLW

vom 23.08. um 00:00 UTC

Zwischen 00:00 UTC und 00:00 UTC

Wind 5 kt aus 40°

Sichtweite 10 km oder mehr

keine signifikanten Wettererscheinungen

keine Wolken


Zwischen 00:00 und 00:00 UTC übergehend zu

Wind 4 kt aus 120°

Sichtweite 10 km oder mehr

keine signifikanten Wettererscheinungen

keine Wolken


Am 24.08. zwischen 00:00 und 00:00 UTC übergehend zu

Wind 7 kt aus 60°

Sichtweite 10 km oder mehr

keine signifikanten Wettererscheinungen

keine Wolken

TAF EDLW 231100Z 2312/2412 04005KT CAVOK BECMG 2320/2323 12004KT BECMG 2406/2409 06007KT
Impressum